createdAt,value
2023-12-15T00:01:25.726Z,4.97
2023-12-15T00:06:24.446Z,4.88
2023-12-15T00:11:23.232Z,5.88
2023-12-15T00:16:21.984Z,6.47
2023-12-15T00:21:21.733Z,5.10
2023-12-15T00:26:20.472Z,8.05
2023-12-15T00:31:19.241Z,7.28
2023-12-15T00:36:18.038Z,6.78
2023-12-15T00:41:16.853Z,8.77
2023-12-15T00:46:15.772Z,7.82
2023-12-15T00:51:14.718Z,8.25
2023-12-15T00:56:13.545Z,8.68
2023-12-15T01:01:12.406Z,7.97
2023-12-15T01:06:11.330Z,9.32
2023-12-15T01:11:10.290Z,8.65
2023-12-15T01:16:09.404Z,10.43
2023-12-15T01:21:08.305Z,7.50
2023-12-15T01:26:07.174Z,10.10
2023-12-15T01:31:06.154Z,6.47
2023-12-15T01:36:05.383Z,9.57
2023-12-15T01:41:04.467Z,6.85
2023-12-15T01:46:08.925Z,9.93
2023-12-15T01:51:15.267Z,8.90
2023-12-15T01:56:14.204Z,6.28
2023-12-15T02:01:13.112Z,9.23
2023-12-15T02:06:12.000Z,8.13
2023-12-15T02:11:10.878Z,6.82
2023-12-15T02:16:09.754Z,5.97
2023-12-15T02:21:08.558Z,5.38
2023-12-15T02:26:07.407Z,6.72
2023-12-15T02:31:06.383Z,9.07
2023-12-15T02:36:05.473Z,7.82
2023-12-15T02:41:04.557Z,8.57
2023-12-15T02:46:03.432Z,10.95
2023-12-15T02:51:02.185Z,10.18
2023-12-15T02:56:01.133Z,11.82
2023-12-15T03:00:59.990Z,9.77
2023-12-15T03:05:58.896Z,10.93
2023-12-15T03:10:59.154Z,10.98
2023-12-15T03:16:08.194Z,11.48
2023-12-15T03:21:07.382Z,9.88
2023-12-15T03:26:07.717Z,12.15
2023-12-15T03:31:10.061Z,13.52
2023-12-15T03:36:09.061Z,13.48
2023-12-15T03:41:07.918Z,13.60
2023-12-15T03:46:06.972Z,17.60
2023-12-15T03:51:05.962Z,17.17
2023-12-15T03:56:06.381Z,18.58
2023-12-15T04:01:05.517Z,17.05
2023-12-15T04:06:08.903Z,14.23
2023-12-15T04:11:07.968Z,17.52
2023-12-15T04:16:07.283Z,15.07
2023-12-15T04:21:06.780Z,15.30
2023-12-15T04:26:05.829Z,16.15
2023-12-15T04:31:05.033Z,15.73
2023-12-15T04:36:04.926Z,13.55
2023-12-15T04:41:03.942Z,12.55
2023-12-15T04:46:02.742Z,16.20
2023-12-15T04:51:01.513Z,13.32
2023-12-15T04:56:00.429Z,15.10
2023-12-15T05:00:59.304Z,13.63
2023-12-15T05:05:58.324Z,12.90
2023-12-15T05:10:57.840Z,14.02
2023-12-15T05:15:56.659Z,16.63
2023-12-15T05:20:55.470Z,13.02
2023-12-15T05:25:54.324Z,13.65
2023-12-15T05:30:53.272Z,15.70
2023-12-15T05:35:52.185Z,14.60
2023-12-15T05:40:51.075Z,16.60
2023-12-15T05:45:49.915Z,17.30
2023-12-15T05:50:48.836Z,10.10
2023-12-15T05:55:49.038Z,10.80
2023-12-15T06:00:50.510Z,10.23
2023-12-15T06:05:49.600Z,8.20
2023-12-15T06:10:49.427Z,11.73
2023-12-15T06:15:48.254Z,11.40
2023-12-15T06:20:47.124Z,14.10
2023-12-15T06:25:45.964Z,8.13
2023-12-15T06:30:44.968Z,12.05
2023-12-15T06:35:43.846Z,11.25
2023-12-15T06:40:42.631Z,12.68
2023-12-15T06:45:41.883Z,13.40
2023-12-15T06:50:40.733Z,10.80
2023-12-15T06:55:39.636Z,11.90
2023-12-15T07:00:40.576Z,11.20
2023-12-15T07:05:39.477Z,11.50
2023-12-15T07:10:38.205Z,10.30
2023-12-15T07:15:37.069Z,11.70
2023-12-15T07:20:35.877Z,11.52
2023-12-15T07:25:34.717Z,14.13
2023-12-15T07:30:33.624Z,11.52
2023-12-15T07:35:33.576Z,11.75
2023-12-15T07:40:32.589Z,13.98
2023-12-15T07:45:31.486Z,12.13
2023-12-15T07:50:31.910Z,10.70
2023-12-15T07:55:30.911Z,13.18
2023-12-15T08:00:29.942Z,11.70
2023-12-15T08:05:28.965Z,15.20
2023-12-15T08:10:30.623Z,16.90
2023-12-15T08:15:29.401Z,13.20
2023-12-15T08:20:28.190Z,15.95
2023-12-15T08:25:26.990Z,15.13
2023-12-15T08:30:25.885Z,13.93
2023-12-15T08:35:25.112Z,15.52
2023-12-15T08:40:24.842Z,14.57
2023-12-15T08:45:23.890Z,14.63
2023-12-15T08:50:22.748Z,18.35
2023-12-15T08:55:21.634Z,16.83
2023-12-15T09:00:20.635Z,14.95
2023-12-15T09:05:31.272Z,19.70
2023-12-15T09:10:45.005Z,15.85
2023-12-15T09:15:43.877Z,17.27
2023-12-15T09:20:42.845Z,16.38
2023-12-15T09:25:41.679Z,19.15
2023-12-15T09:30:40.917Z,14.80
2023-12-15T09:35:40.072Z,19.38
2023-12-15T09:40:39.106Z,16.42
2023-12-15T09:45:40.399Z,15.95
2023-12-15T09:50:41.520Z,15.40
2023-12-15T09:55:40.980Z,15.07
2023-12-15T10:00:40.391Z,14.02
2023-12-15T10:05:39.461Z,17.45
2023-12-15T10:10:38.949Z,16.55
2023-12-15T10:15:37.769Z,16.55
2023-12-15T10:20:36.724Z,16.85
2023-12-15T10:25:35.599Z,13.50
2023-12-15T10:30:36.759Z,17.58
2023-12-15T10:35:38.210Z,17.05
2023-12-15T10:40:36.986Z,15.27
2023-12-15T10:45:36.503Z,15.52
2023-12-15T10:50:37.379Z,19.10
2023-12-15T10:55:39.263Z,19.95
2023-12-15T11:00:39.957Z,17.27
2023-12-15T11:05:41.591Z,18.98
2023-12-15T11:10:40.961Z,20.67
2023-12-15T11:15:41.854Z,15.88
2023-12-15T11:20:42.451Z,17.02
2023-12-15T11:25:47.345Z,17.02
2023-12-15T11:30:55.508Z,17.17
2023-12-15T11:35:55.001Z,15.68
2023-12-15T11:40:55.047Z,15.38
2023-12-15T11:45:54.983Z,15.85
2023-12-15T11:50:53.745Z,18.58
2023-12-15T11:55:53.472Z,17.80
2023-12-15T12:00:52.301Z,15.68
2023-12-15T12:05:56.226Z,18.42
2023-12-15T12:10:55.828Z,14.45
2023-12-15T12:15:56.334Z,13.30
2023-12-15T12:20:57.265Z,15.55
2023-12-15T12:25:58.200Z,14.55
2023-12-15T12:30:58.002Z,13.82
2023-12-15T12:35:57.001Z,13.07
2023-12-15T12:40:56.349Z,13.55
2023-12-15T12:45:55.285Z,11.85
2023-12-15T12:50:54.094Z,11.93
2023-12-15T12:55:53.307Z,13.70
2023-12-15T13:00:54.020Z,10.52
2023-12-15T13:05:54.181Z,10.73
2023-12-15T13:10:53.429Z,10.10
2023-12-15T13:15:52.357Z,10.98
2023-12-15T13:20:51.367Z,10.45
2023-12-15T13:25:50.373Z,8.30
2023-12-15T13:30:49.973Z,11.15
2023-12-15T13:35:50.053Z,10.70
2023-12-15T13:40:49.129Z,10.00
2023-12-15T13:45:54.030Z,9.70
2023-12-15T13:50:57.858Z,7.25
2023-12-15T13:55:57.071Z,9.13
2023-12-15T14:00:56.062Z,9.18
2023-12-15T14:05:55.556Z,6.75
2023-12-15T14:10:54.463Z,6.25
2023-12-15T14:15:53.307Z,4.97
2023-12-15T14:20:53.561Z,4.75
2023-12-15T14:25:52.871Z,4.85
2023-12-15T14:30:52.638Z,5.45
2023-12-15T14:35:51.747Z,5.93
2023-12-15T14:40:50.755Z,5.72
2023-12-15T14:45:49.962Z,4.13
2023-12-15T14:50:50.470Z,5.00
2023-12-15T14:55:49.359Z,5.60
2023-12-15T15:00:48.169Z,5.20
2023-12-15T15:05:47.216Z,8.13
2023-12-15T15:10:47.753Z,5.32
2023-12-15T15:15:46.649Z,5.43
2023-12-15T15:20:45.599Z,4.60
2023-12-15T15:25:44.966Z,4.55
2023-12-15T15:30:43.967Z,7.15
2023-12-15T15:35:42.933Z,6.55
2023-12-15T15:40:41.931Z,7.13
2023-12-15T15:45:40.921Z,7.95
2023-12-15T15:50:40.595Z,8.68
2023-12-15T15:55:39.419Z,9.13
2023-12-15T16:00:38.303Z,7.28
2023-12-15T16:05:37.702Z,8.93
2023-12-15T16:10:44.662Z,10.23
2023-12-15T16:15:44.705Z,11.25
2023-12-15T16:20:43.591Z,12.65
2023-12-15T16:25:42.511Z,11.50
2023-12-15T16:30:41.531Z,11.27
2023-12-15T16:35:40.434Z,13.90
2023-12-15T16:40:39.210Z,12.23
2023-12-15T16:45:38.008Z,14.68
2023-12-15T16:50:36.999Z,13.90
2023-12-15T16:55:35.786Z,12.60
2023-12-15T17:00:34.692Z,12.15
2023-12-15T17:05:35.064Z,11.85
2023-12-15T17:10:33.948Z,10.45
2023-12-15T17:15:34.164Z,13.38
2023-12-15T17:20:33.118Z,12.65
2023-12-15T17:25:31.871Z,16.05
2023-12-15T17:30:30.723Z,14.10
2023-12-15T17:35:29.536Z,16.88
2023-12-15T17:40:29.155Z,16.35
2023-12-15T17:45:28.143Z,15.75
2023-12-15T17:50:27.115Z,15.25
2023-12-15T17:55:26.122Z,15.55
2023-12-15T18:00:24.971Z,14.63
2023-12-15T18:05:24.862Z,13.65
2023-12-15T18:10:23.728Z,12.57
2023-12-15T18:15:22.701Z,15.05
2023-12-15T18:20:21.658Z,14.32
2023-12-15T18:25:20.628Z,15.85
2023-12-15T18:30:22.697Z,17.13
2023-12-15T18:35:21.808Z,17.83
2023-12-15T18:40:20.600Z,20.02
2023-12-15T18:45:19.579Z,16.17
2023-12-15T18:50:18.513Z,17.40
2023-12-15T18:55:17.799Z,15.55
2023-12-15T19:00:21.788Z,15.30
2023-12-15T19:05:22.288Z,15.15
2023-12-15T19:10:21.423Z,16.05
2023-12-15T19:15:21.945Z,13.60
2023-12-15T19:20:21.135Z,15.60
2023-12-15T19:25:20.098Z,16.25
2023-12-15T19:30:19.911Z,14.32
2023-12-15T19:35:19.307Z,14.30
2023-12-15T19:40:18.397Z,14.52
2023-12-15T19:45:17.586Z,15.82
2023-12-15T19:50:16.609Z,20.73
2023-12-15T19:55:16.179Z,10.57
2023-12-15T20:00:15.657Z,16.02
2023-12-15T20:05:20.470Z,12.93
2023-12-15T20:10:19.600Z,15.75
2023-12-15T20:15:18.698Z,13.98
2023-12-15T20:20:17.625Z,14.63
2023-12-15T20:25:16.494Z,15.38
2023-12-15T20:30:15.559Z,15.20
2023-12-15T20:35:14.552Z,11.52
2023-12-15T20:40:14.029Z,13.07
2023-12-15T20:45:13.757Z,13.45
2023-12-15T20:50:12.932Z,15.07
2023-12-15T20:55:16.366Z,11.68
2023-12-15T21:00:15.760Z,14.75
2023-12-15T21:05:14.896Z,13.82
2023-12-15T21:10:15.243Z,13.35
2023-12-15T21:15:14.165Z,11.73
2023-12-15T21:20:14.142Z,14.27
2023-12-15T21:25:13.423Z,10.98
2023-12-15T21:30:13.733Z,14.70
2023-12-15T21:35:14.885Z,13.10
2023-12-15T21:40:14.309Z,14.43
2023-12-15T21:45:13.223Z,12.48
2023-12-15T21:50:12.251Z,12.63
2023-12-15T21:55:11.255Z,15.95
2023-12-15T22:00:12.306Z,16.08
2023-12-15T22:05:11.353Z,13.32
2023-12-15T22:10:11.820Z,14.90
2023-12-15T22:15:10.790Z,16.35
2023-12-15T22:20:09.961Z,15.02
2023-12-15T22:25:09.367Z,16.20
2023-12-15T22:30:11.095Z,18.38
2023-12-15T22:35:10.058Z,18.80
2023-12-15T22:40:09.572Z,15.80
2023-12-15T22:45:08.856Z,11.02
2023-12-15T22:50:08.618Z,14.82
2023-12-15T22:55:08.415Z,12.95
2023-12-15T23:00:09.146Z,10.82
2023-12-15T23:05:09.350Z,11.45
2023-12-15T23:10:09.896Z,11.52
2023-12-15T23:15:15.044Z,11.13
2023-12-15T23:20:19.347Z,16.88
2023-12-15T23:25:18.544Z,16.58
2023-12-15T23:30:19.432Z,15.13
2023-12-15T23:35:19.610Z,14.02
2023-12-15T23:40:18.650Z,14.00
2023-12-15T23:45:17.556Z,15.68
2023-12-15T23:50:16.500Z,13.50
2023-12-15T23:55:15.419Z,13.02
